Time;durP1;ratioP1;P1;durP2;ratioP2;P2;SDS_P1;SDS_P2;PMS_P1;PMS_P2;Temp;Humidity;BMP_temperature;BMP_pressure;BME280_temperature;BME280_humidity;BME280_pressure;Samples;Min_cycle;Max_cycle;Signal;HPM_P1;HPM_P2
2022/09/21 00:00:08;;;;;;;;;;;7.80;99.90;;;;;;4155329;28;19913;-62
2022/09/21 00:02:09;;;;;;;;;;;7.70;99.90;;;;;;4161505;28;19955;-62
2022/09/21 00:04:10;;;;;;;;;;;7.70;99.90;;;;;;4150997;28;19909;-63
2022/09/21 00:06:16;;;;;;;;;;;7.70;99.90;;;;;;4147047;28;19965;-62
2022/09/21 00:08:17;;;;;;;;;;;7.70;99.90;;;;;;4149521;28;19909;-63
2022/09/21 00:10:19;;;;;;;;;;;7.70;99.90;;;;;;4195001;28;20354;-62
2022/09/21 00:12:20;;;;;;;;;;;7.70;99.90;;;;;;4164363;28;19913;-62
2022/09/21 00:14:21;;;;;;;;;;;7.70;99.90;;;;;;4163817;28;20332;-62
2022/09/21 00:16:22;;;;;;;;;;;7.70;99.90;;;;;;4163821;28;19940;-62
2022/09/21 00:18:24;;;;;;;;;;;7.70;99.90;;;;;;4163890;28;19956;-62
2022/09/21 00:20:25;;;;;;;;;;;7.80;99.90;;;;;;4163032;28;19978;-63
2022/09/21 00:22:27;;;;;;;;;;;7.90;99.90;;;;;;4164217;28;19905;-62
2022/09/21 00:24:28;;;;;;;;;;;7.90;99.90;;;;;;4163357;28;19905;-62
2022/09/21 00:26:29;;;;;;;;;;;7.90;99.90;;;;;;4155359;28;19979;-63
2022/09/21 00:28:30;;;;;;;;;;;8.00;99.90;;;;;;4158214;28;19909;-63
2022/09/21 00:30:31;;;;;;;;;;;7.90;99.90;;;;;;4164088;28;19919;-63
2022/09/21 00:32:34;;;;;;;;;;;7.90;99.90;;;;;;4163450;28;19913;-62
2022/09/21 00:34:35;;;;;;;;;;;7.90;99.90;;;;;;4164349;28;19932;-62
2022/09/21 00:36:36;;;;;;;;;;;7.90;99.90;;;;;;4163047;28;19905;-62
2022/09/21 00:38:38;;;;;;;;;;;7.90;99.90;;;;;;4164250;28;19905;-62
2022/09/21 00:40:38;;;;;;;;;;;7.90;99.90;;;;;;4157299;28;20436;-62
2022/09/21 00:42:39;;;;;;;;;;;7.90;99.90;;;;;;4149814;28;19923;-62
2022/09/21 00:44:40;;;;;;;;;;;7.90;99.90;;;;;;4146306;28;20332;-63
2022/09/21 00:46:42;;;;;;;;;;;7.90;99.90;;;;;;4147123;28;19924;-61
2022/09/21 00:48:44;;;;;;;;;;;7.90;99.90;;;;;;4147221;28;19952;-62
2022/09/21 00:50:49;;;;;;;;;;;7.90;99.90;;;;;;4146651;28;19905;-62
2022/09/21 00:52:53;;;;;;;;;;;7.90;99.90;;;;;;4147261;28;20015;-62
2022/09/21 00:54:56;;;;;;;;;;;7.90;99.90;;;;;;4146595;28;19909;-62
2022/09/21 00:57:01;;;;;;;;;;;7.90;99.90;;;;;;4147141;28;19951;-62
2022/09/21 00:59:03;;;;;;;;;;;7.80;99.90;;;;;;4146230;28;19909;-61
2022/09/21 01:01:03;;;;;;;;;;;7.90;99.90;;;;;;4148123;28;19925;-62
2022/09/21 01:03:07;;;;;;;;;;;7.80;99.90;;;;;;4146165;28;19972;-63
2022/09/21 01:05:08;;;;;;;;;;;7.80;99.90;;;;;;4155669;28;19909;-62
2022/09/21 01:07:11;;;;;;;;;;;7.80;99.90;;;;;;4162628;28;19905;-62
2022/09/21 01:09:13;;;;;;;;;;;7.90;99.90;;;;;;4163991;28;19905;-62
2022/09/21 01:11:14;;;;;;;;;;;7.80;99.90;;;;;;4162784;28;19951;-63
2022/09/21 01:13:33;;;;;;;;;;;7.90;99.90;;;;;;4163404;28;19913;-62
2022/09/21 01:15:38;;;;;;;;;;;7.90;99.90;;;;;;4162200;28;20349;-62
2022/09/21 01:17:45;;;;;;;;;;;7.90;99.90;;;;;;4163613;28;19966;-63
2022/09/21 01:20:09;;;;;;;;;;;8.00;99.90;;;;;;4162443;28;20342;-63
2022/09/21 01:22:13;;;;;;;;;;;8.00;99.90;;;;;;4163240;28;20350;-63
2022/09/21 01:24:20;;;;;;;;;;;8.00;99.90;;;;;;4162273;28;20247;-62
2022/09/21 01:26:27;;;;;;;;;;;8.00;99.90;;;;;;4194461;28;19916;-63
2022/09/21 01:28:29;;;;;;;;;;;8.00;99.90;;;;;;4151522;28;19914;-64
2022/09/21 01:30:32;;;;;;;;;;;8.10;99.90;;;;;;4147045;28;19909;-63
2022/09/21 01:32:36;;;;;;;;;;;8.10;99.90;;;;;;4145709;28;19905;-63
2022/09/21 01:34:41;;;;;;;;;;;8.10;99.90;;;;;;4146412;28;19952;-63
2022/09/21 01:36:43;;;;;;;;;;;8.10;99.90;;;;;;4145942;28;20255;-62
2022/09/21 01:38:48;;;;;;;;;;;8.20;99.90;;;;;;4146441;28;19963;-62
2022/09/21 01:40:55;;;;;;;;;;;8.10;99.90;;;;;;4146392;28;19902;-63
2022/09/21 01:42:57;;;;;;;;;;;8.10;99.90;;;;;;4147199;28;19917;-62
2022/09/21 01:44:59;;;;;;;;;;;8.10;99.90;;;;;;4148015;28;19913;-62
2022/09/21 01:47:02;;;;;;;;;;;8.10;99.90;;;;;;4161011;28;19917;-62
2022/09/21 01:49:15;;;;;;;;;;;8.10;99.90;;;;;;4162442;28;20324;-62
2022/09/21 01:51:17;;;;;;;;;;;8.20;99.90;;;;;;4145930;28;20254;-63
2022/09/21 01:53:23;;;;;;;;;;;8.20;99.90;;;;;;4146008;28;19905;-62
2022/09/21 01:55:29;;;;;;;;;;;8.20;99.90;;;;;;4145640;28;19913;-63
2022/09/21 01:57:44;;;;;;;;;;;8.20;99.90;;;;;;4146439;28;20435;-61
2022/09/21 01:59:51;;;;;;;;;;;8.20;99.90;;;;;;4145379;28;19967;-62
2022/09/21 02:01:56;;;;;;;;;;;8.30;99.90;;;;;;4144780;28;19921;-61
2022/09/21 02:03:59;;;;;;;;;;;8.30;99.90;;;;;;4145203;28;20019;-62
2022/09/21 02:06:00;;;;;;;;;;;8.30;99.90;;;;;;4146186;28;20016;-60
2022/09/21 02:08:01;;;;;;;;;;;8.20;99.90;;;;;;4151695;28;19959;-61
2022/09/21 02:10:03;;;;;;;;;;;8.20;99.90;;;;;;4146708;28;19905;-62
2022/09/21 02:12:04;;;;;;;;;;;8.20;99.90;;;;;;4145157;28;20420;-63
2022/09/21 02:14:09;;;;;;;;;;;8.20;99.90;;;;;;4145877;28;19909;-61
2022/09/21 02:16:24;;;;;;;;;;;8.20;99.90;;;;;;4144959;28;19905;-62
2022/09/21 02:18:40;;;;;;;;;;;8.20;99.90;;;;;;4145731;28;20325;-62
2022/09/21 02:20:45;;;;;;;;;;;8.20;99.90;;;;;;4143607;28;19909;-64
2022/09/21 02:22:54;;;;;;;;;;;8.20;99.90;;;;;;4145924;28;20623;-63
2022/09/21 02:25:00;;;;;;;;;;;8.30;99.90;;;;;;4145163;28;20271;-62
2022/09/21 02:27:03;;;;;;;;;;;8.30;99.90;;;;;;4148444;28;19917;-62
2022/09/21 02:29:19;;;;;;;;;;;8.30;99.90;;;;;;4145647;28;19960;-63
2022/09/21 02:31:32;;;;;;;;;;;8.20;99.90;;;;;;4146096;28;19959;-63
2022/09/21 02:33:40;;;;;;;;;;;8.20;99.90;;;;;;4144734;28;19905;-62
2022/09/21 02:35:41;;;;;;;;;;;8.20;99.90;;;;;;4146186;28;20404;-62
2022/09/21 02:37:48;;;;;;;;;;;8.20;99.90;;;;;;4144957;28;19929;-63
2022/09/21 02:39:58;;;;;;;;;;;8.20;99.90;;;;;;4156381;28;19909;-63
2022/09/21 02:42:00;;;;;;;;;;;8.20;99.90;;;;;;4147703;28;19917;-62
2022/09/21 02:44:15;;;;;;;;;;;8.10;99.90;;;;;;4147265;28;19913;-63
2022/09/21 02:46:31;;;;;;;;;;;8.20;99.90;;;;;;4145788;28;20282;-63
2022/09/21 02:48:37;;;;;;;;;;;8.20;99.90;;;;;;4157841;28;20331;-64
2022/09/21 02:50:42;;;;;;;;;;;8.10;99.90;;;;;;4152921;28;19913;-62
2022/09/21 02:52:43;;;;;;;;;;;8.20;99.90;;;;;;4145992;28;19948;-62
2022/09/21 02:54:48;;;;;;;;;;;8.20;99.90;;;;;;4144809;28;19956;-62
2022/09/21 02:56:50;;;;;;;;;;;8.20;99.90;;;;;;4145831;28;19910;-63
2022/09/21 02:58:53;;;;;;;;;;;8.30;99.90;;;;;;4144592;28;19901;-61
2022/09/21 03:00:55;;;;;;;;;;;8.30;99.90;;;;;;4145090;28;19917;-61
2022/09/21 03:02:56;;;;;;;;;;;8.30;99.90;;;;;;4145185;28;19968;-61
2022/09/21 03:04:57;;;;;;;;;;;8.30;99.90;;;;;;4145176;28;19909;-62
2022/09/21 03:06:58;;;;;;;;;;;8.30;99.90;;;;;;4145130;28;20008;-62
2022/09/21 03:08:59;;;;;;;;;;;8.30;99.90;;;;;;4144738;28;20219;-61
2022/09/21 03:11:00;;;;;;;;;;;8.20;99.90;;;;;;4154222;28;19939;-64
2022/09/21 03:13:01;;;;;;;;;;;8.20;99.90;;;;;;4160610;28;19920;-62
2022/09/21 03:15:02;;;;;;;;;;;8.20;99.90;;;;;;4161879;28;19919;-63
2022/09/21 03:17:03;;;;;;;;;;;8.20;99.90;;;;;;4160495;28;20317;-62
2022/09/21 03:19:04;;;;;;;;;;;8.20;99.90;;;;;;4162830;28;19936;-60
2022/09/21 03:21:05;;;;;;;;;;;8.20;99.90;;;;;;4163646;28;20312;-61
2022/09/21 03:23:06;;;;;;;;;;;8.20;99.90;;;;;;4163519;28;20039;-62
2022/09/21 03:25:11;;;;;;;;;;;8.20;99.90;;;;;;4163744;28;20316;-61
2022/09/21 03:27:13;;;;;;;;;;;8.20;99.90;;;;;;4162980;28;19920;-61
2022/09/21 03:29:14;;;;;;;;;;;8.20;99.90;;;;;;4160053;28;19905;-61
2022/09/21 03:31:15;;;;;;;;;;;8.10;99.90;;;;;;4147884;28;19915;-60
2022/09/21 03:33:17;;;;;;;;;;;8.10;99.90;;;;;;4148023;28;19905;-64
2022/09/21 03:35:20;;;;;;;;;;;8.10;99.90;;;;;;4147946;28;19909;-62
2022/09/21 03:37:21;;;;;;;;;;;8.10;99.90;;;;;;4148108;28;19906;-62
2022/09/21 03:39:22;;;;;;;;;;;8.10;99.90;;;;;;4158133;28;20212;-62
2022/09/21 03:41:23;;;;;;;;;;;8.10;99.90;;;;;;4159410;28;19917;-62
2022/09/21 03:43:24;;;;;;;;;;;8.10;99.90;;;;;;4147298;28;19913;-61
2022/09/21 03:45:26;;;;;;;;;;;8.10;99.90;;;;;;4146742;28;19906;-62
2022/09/21 03:47:28;;;;;;;;;;;8.00;99.90;;;;;;4147111;28;19909;-61
2022/09/21 03:49:29;;;;;;;;;;;8.00;99.90;;;;;;4147332;28;19971;-61
2022/09/21 03:51:30;;;;;;;;;;;8.00;99.90;;;;;;4149799;28;19913;-62
2022/09/21 03:53:31;;;;;;;;;;;8.00;99.90;;;;;;4148674;28;19971;-62
2022/09/21 03:55:32;;;;;;;;;;;8.00;99.90;;;;;;4148168;28;19955;-63
2022/09/21 03:57:34;;;;;;;;;;;8.00;99.90;;;;;;4152837;28;19920;-62
2022/09/21 03:59:35;;;;;;;;;;;8.00;99.90;;;;;;4170386;28;19919;-61
2022/09/21 04:01:36;;;;;;;;;;;8.00;99.90;;;;;;4163794;28;19917;-60
2022/09/21 04:03:37;;;;;;;;;;;8.00;99.90;;;;;;4173022;28;19909;-61
2022/09/21 04:05:38;;;;;;;;;;;8.00;99.90;;;;;;4180083;28;20407;-62
2022/09/21 04:07:40;;;;;;;;;;;7.90;99.90;;;;;;4173411;28;19913;-65
2022/09/21 04:09:40;;;;;;;;;;;7.90;99.90;;;;;;4163613;28;20316;-62
2022/09/21 04:11:43;;;;;;;;;;;7.90;99.90;;;;;;4164225;28;19986;-62
2022/09/21 04:13:48;;;;;;;;;;;7.90;99.90;;;;;;4161145;28;20380;-62
2022/09/21 04:15:49;;;;;;;;;;;7.90;99.90;;;;;;4173643;28;19934;-62
2022/09/21 04:17:50;;;;;;;;;;;7.90;99.90;;;;;;4179512;28;20334;-63
2022/09/21 04:19:51;;;;;;;;;;;7.90;99.90;;;;;;4180240;28;19962;-63
2022/09/21 04:21:53;;;;;;;;;;;7.80;99.90;;;;;;4178780;28;20387;-63
2022/09/21 04:23:55;;;;;;;;;;;7.80;99.90;;;;;;4180169;28;19905;-62
2022/09/21 04:25:56;;;;;;;;;;;7.80;99.90;;;;;;4179234;28;19912;-62
2022/09/21 04:27:57;;;;;;;;;;;7.80;99.90;;;;;;4180476;28;19904;-62
2022/09/21 04:29:58;;;;;;;;;;;7.80;99.90;;;;;;4155619;28;20530;-61
2022/09/21 04:31:59;;;;;;;;;;;7.80;99.90;;;;;;4150113;28;20423;-63
2022/09/21 04:34:00;;;;;;;;;;;7.80;99.90;;;;;;4154253;28;19949;-62
2022/09/21 04:36:01;;;;;;;;;;;7.80;99.90;;;;;;4150720;28;19968;-61
2022/09/21 04:38:02;;;;;;;;;;;7.80;99.90;;;;;;4150646;28;19913;-62
2022/09/21 04:40:03;;;;;;;;;;;7.90;99.90;;;;;;4147727;28;19917;-62
2022/09/21 04:42:05;;;;;;;;;;;7.90;99.90;;;;;;4152616;28;19971;-62
2022/09/21 04:44:05;;;;;;;;;;;7.90;99.90;;;;;;4151492;28;20323;-64
2022/09/21 04:46:08;;;;;;;;;;;8.00;99.90;;;;;;4155296;28;19927;-61
2022/09/21 04:48:09;;;;;;;;;;;8.00;99.90;;;;;;4147729;28;20439;-61
2022/09/21 04:50:10;;;;;;;;;;;8.00;99.90;;;;;;4156558;28;19947;-62
2022/09/21 04:52:11;;;;;;;;;;;8.10;99.90;;;;;;4157547;28;20317;-61
2022/09/21 04:54:12;;;;;;;;;;;8.10;99.90;;;;;;4149963;28;19913;-62
2022/09/21 04:56:15;;;;;;;;;;;8.00;99.90;;;;;;4151340;28;19909;-61
2022/09/21 04:58:16;;;;;;;;;;;8.10;99.90;;;;;;4146871;28;20336;-62
2022/09/21 05:00:18;;;;;;;;;;;8.10;99.90;;;;;;4151935;28;19909;-61
2022/09/21 05:02:19;;;;;;;;;;;8.20;99.90;;;;;;4147352;28;19952;-61
2022/09/21 05:04:20;;;;;;;;;;;8.20;99.90;;;;;;4160880;28;19913;-62
2022/09/21 05:06:21;;;;;;;;;;;8.20;99.90;;;;;;4162869;28;19923;-64
2022/09/21 05:10:42;;;;;;;;;;;8.30;99.90;;;;;;4163937;28;19951;-62
2022/09/21 05:12:43;;;;;;;;;;;8.30;99.90;;;;;;4162436;28;20349;-62
2022/09/21 05:14:44;;;;;;;;;;;8.40;99.90;;;;;;4162381;28;19947;-62
2022/09/21 05:16:48;;;;;;;;;;;8.40;99.90;;;;;;4161462;28;19932;-63
2022/09/21 05:18:51;;;;;;;;;;;8.40;99.90;;;;;;4162107;28;19959;-63
2022/09/21 05:20:55;;;;;;;;;;;8.50;99.90;;;;;;4161334;28;19904;-62
2022/09/21 05:23:00;;;;;;;;;;;8.50;99.90;;;;;;4162080;28;19905;-63
2022/09/21 05:25:01;;;;;;;;;;;8.60;99.90;;;;;;4161512;28;19916;-62
2022/09/21 05:27:02;;;;;;;;;;;8.70;99.90;;;;;;4161716;28;19924;-63
2022/09/21 05:29:03;;;;;;;;;;;8.70;99.90;;;;;;4163275;28;19951;-61
2022/09/21 05:31:16;;;;;;;;;;;8.90;99.90;;;;;;4161532;28;19909;-61
2022/09/21 05:33:20;;;;;;;;;;;9.00;99.90;;;;;;4162937;28;20423;-62
2022/09/21 05:35:21;;;;;;;;;;;9.20;99.90;;;;;;4161896;28;20423;-62
2022/09/21 05:37:22;;;;;;;;;;;9.70;99.90;;;;;;4162729;28;19909;-62
2022/09/21 05:39:23;;;;;;;;;;;9.90;99.90;;;;;;4161851;28;19948;-62
2022/09/21 05:41:24;;;;;;;;;;;10.10;99.90;;;;;;4161120;28;19933;-62
2022/09/21 05:43:25;;;;;;;;;;;10.20;99.90;;;;;;4160631;28;19962;-61
2022/09/21 05:45:27;;;;;;;;;;;10.70;99.90;;;;;;4193146;28;20364;-62
2022/09/21 05:47:37;;;;;;;;;;;11.10;99.90;;;;;;4159823;28;20365;-63
2022/09/21 05:49:43;;;;;;;;;;;11.90;99.90;;;;;;4162212;28;20036;-63
2022/09/21 05:52:04;;;;;;;;;;;12.50;99.90;;;;;;4161721;28;20416;-62
2022/09/21 05:54:19;;;;;;;;;;;12.90;99.90;;;;;;4161842;28;20378;-62
2022/09/21 05:56:29;;;;;;;;;;;12.80;99.90;;;;;;4161213;28;19951;-62
2022/09/21 05:58:38;;;;;;;;;;;12.60;99.90;;;;;;4162724;28;19924;-63
2022/09/21 06:00:43;;;;;;;;;;;12.30;99.90;;;;;;4161141;28;19916;-62
2022/09/21 06:03:22;;;;;;;;;;;12.10;99.90;;;;;;4162217;28;19909;-62
2022/09/21 06:05:24;;;;;;;;;;;11.90;99.90;;;;;;4126947;28;20346;-61
2022/09/21 06:07:24;;;;;;;;;;;11.70;99.90;;;;;;4127914;28;19914;-62
2022/09/21 06:09:26;;;;;;;;;;;11.60;99.90;;;;;;4126610;28;19905;-61
2022/09/21 06:11:27;;;;;;;;;;;11.70;99.90;;;;;;4160631;28;20323;-62
2022/09/21 06:13:28;;;;;;;;;;;11.90;99.90;;;;;;4161255;28;19901;-63
2022/09/21 06:15:29;;;;;;;;;;;12.10;99.90;;;;;;4161726;28;19905;-62
2022/09/21 06:17:31;;;;;;;;;;;12.10;99.90;;;;;;4161638;28;19901;-62
2022/09/21 06:19:32;;;;;;;;;;;12.40;99.90;;;;;;4161847;28;20685;-62
2022/09/21 06:21:33;;;;;;;;;;;12.80;99.90;;;;;;4161681;28;19909;-64
2022/09/21 06:23:34;;;;;;;;;;;13.00;99.90;;;;;;4161165;28;19905;-62
2022/09/21 06:25:35;;;;;;;;;;;13.00;99.90;;;;;;4162215;28;19963;-62
2022/09/21 06:27:36;;;;;;;;;;;12.80;99.90;;;;;;4161006;28;20425;-62
2022/09/21 06:29:37;;;;;;;;;;;12.90;99.90;;;;;;4162433;28;20288;-62
2022/09/21 06:31:38;;;;;;;;;;;13.30;99.90;;;;;;4160749;28;19916;-62
2022/09/21 06:33:39;;;;;;;;;;;13.80;99.90;;;;;;4161977;28;19909;-62
2022/09/21 06:35:40;;;;;;;;;;;14.30;99.90;;;;;;4160828;28;19905;-63
2022/09/21 06:37:41;;;;;;;;;;;14.30;99.90;;;;;;4162088;28;19959;-63
2022/09/21 06:39:42;;;;;;;;;;;14.70;99.90;;;;;;4161284;28;19955;-63
2022/09/21 06:41:43;;;;;;;;;;;15.00;99.90;;;;;;4161528;28;19960;-63
2022/09/21 06:43:44;;;;;;;;;;;15.40;99.90;;;;;;4161094;28;20369;-63
2022/09/21 06:45:54;;;;;;;;;;;15.30;99.90;;;;;;4161223;28;19905;-63
2022/09/21 06:47:56;;;;;;;;;;;15.60;99.90;;;;;;4160971;28;20237;-63
2022/09/21 06:49:57;;;;;;;;;;;15.80;99.90;;;;;;4161461;28;19940;-63
2022/09/21 06:51:58;;;;;;;;;;;15.60;99.90;;;;;;4161434;28;20025;-63
2022/09/21 06:53:58;;;;;;;;;;;15.60;99.90;;;;;;4161489;28;19948;-63
2022/09/21 06:56:04;;;;;;;;;;;15.60;99.90;;;;;;4164980;28;20289;-64
2022/09/21 06:58:04;;;;;;;;;;;15.60;99.90;;;;;;4164177;28;19909;-64
2022/09/21 07:00:07;;;;;;;;;;;15.80;99.90;;;;;;4165523;28;19905;-64
2022/09/21 07:02:08;;;;;;;;;;;15.80;99.90;;;;;;4163977;28;19921;-62
2022/09/21 07:04:09;;;;;;;;;;;15.70;99.90;;;;;;4165145;28;20307;-63
2022/09/21 07:06:12;;;;;;;;;;;15.80;99.90;;;;;;4163944;28;19909;-63
2022/09/21 07:08:14;;;;;;;;;;;16.10;99.90;;;;;;4164699;28;19967;-64
2022/09/21 07:10:15;;;;;;;;;;;16.20;99.90;;;;;;4164178;28;20373;-64
2022/09/21 07:12:16;;;;;;;;;;;16.20;99.90;;;;;;4165460;28;20003;-63
2022/09/21 07:14:17;;;;;;;;;;;16.20;99.90;;;;;;4164256;28;19955;-63
2022/09/21 07:16:18;;;;;;;;;;;16.00;99.90;;;;;;4164872;28;19905;-63
2022/09/21 07:18:20;;;;;;;;;;;16.10;99.90;;;;;;4164202;28;20345;-63
2022/09/21 07:20:21;;;;;;;;;;;16.00;99.90;;;;;;4164168;28;19913;-63
2022/09/21 07:22:22;;;;;;;;;;;15.80;99.90;;;;;;4164339;28;19936;-63
2022/09/21 07:24:23;;;;;;;;;;;15.50;99.90;;;;;;4164064;28;19909;-63
2022/09/21 07:26:24;;;;;;;;;;;15.60;99.90;;;;;;4164543;28;19908;-63
2022/09/21 07:28:24;;;;;;;;;;;15.40;99.90;;;;;;4163859;28;19909;-61
2022/09/21 07:30:26;;;;;;;;;;;15.30;99.90;;;;;;4165333;28;19924;-63
2022/09/21 07:32:27;;;;;;;;;;;15.00;99.90;;;;;;4163543;28;19905;-63
2022/09/21 07:34:28;;;;;;;;;;;15.00;99.90;;;;;;4164458;28;19912;-63
2022/09/21 07:36:29;;;;;;;;;;;15.00;99.90;;;;;;4163233;28;19909;-63
2022/09/21 07:38:33;;;;;;;;;;;14.70;99.90;;;;;;4164541;28;20358;-64
2022/09/21 07:40:34;;;;;;;;;;;14.50;99.90;;;;;;4163297;28;19912;-63
2022/09/21 07:42:35;;;;;;;;;;;14.30;99.90;;;;;;4164462;28;20008;-62
2022/09/21 07:44:36;;;;;;;;;;;14.20;99.90;;;;;;4163015;28;20281;-63
2022/09/21 07:46:37;;;;;;;;;;;14.20;99.90;;;;;;4164068;28;20349;-63
2022/09/21 07:48:38;;;;;;;;;;;14.30;99.90;;;;;;4163376;28;20329;-63
2022/09/21 07:50:39;;;;;;;;;;;14.40;99.90;;;;;;4164067;28;19909;-62
2022/09/21 07:52:41;;;;;;;;;;;14.40;99.90;;;;;;4163705;28;20353;-62
2022/09/21 07:54:41;;;;;;;;;;;14.40;99.90;;;;;;4161666;28;19909;-62
2022/09/21 07:59:04;;;;;;;;;;;14.40;99.90;;;;;;4163684;28;20276;-61
2022/09/21 07:59:07;;;;;;;;;;;14.40;99.90;;;;;;4163604;28;20426;-63
2022/09/21 08:01:08;;;;;;;;;;;14.80;99.90;;;;;;4164029;28;19921;-61
2022/09/21 08:03:09;;;;;;;;;;;15.00;99.90;;;;;;4163501;28;19909;-62
2022/09/21 08:05:10;;;;;;;;;;;15.20;99.90;;;;;;4163597;28;19967;-62
2022/09/21 08:07:12;;;;;;;;;;;15.40;99.90;;;;;;4162390;28;19920;-62
2022/09/21 08:09:13;;;;;;;;;;;15.30;99.90;;;;;;4164200;28;19905;-62
2022/09/21 08:11:15;;;;;;;;;;;15.50;99.90;;;;;;4163424;28;20023;-62
2022/09/21 08:13:16;;;;;;;;;;;15.50;99.90;;;;;;4163835;28;19905;-62
2022/09/21 08:15:17;;;;;;;;;;;15.50;99.90;;;;;;4162888;28;19937;-63
2022/09/21 08:17:18;;;;;;;;;;;15.50;99.90;;;;;;4162600;28;19905;-62
2022/09/21 08:19:19;;;;;;;;;;;15.30;99.90;;;;;;4162717;28;19971;-62
2022/09/21 08:21:21;;;;;;;;;;;15.20;99.90;;;;;;4164076;28;19905;-63
2022/09/21 08:23:22;;;;;;;;;;;14.80;99.90;;;;;;4162818;28;19909;-62
2022/09/21 08:25:23;;;;;;;;;;;14.30;99.90;;;;;;4163642;28;19909;-63
2022/09/21 08:27:24;;;;;;;;;;;13.90;99.90;;;;;;4162992;28;19978;-63
2022/09/21 08:29:25;;;;;;;;;;;13.80;99.90;;;;;;4163178;28;19909;-62
2022/09/21 08:31:26;;;;;;;;;;;13.70;99.90;;;;;;4163789;28;19905;-62
2022/09/21 08:33:27;;;;;;;;;;;13.50;99.90;;;;;;4162911;28;20380;-62
2022/09/21 08:35:28;;;;;;;;;;;13.60;99.90;;;;;;4163674;28;19917;-62
2022/09/21 08:37:30;;;;;;;;;;;13.80;99.90;;;;;;4162476;28;19909;-62
2022/09/21 08:39:32;;;;;;;;;;;14.10;99.90;;;;;;4163832;28;20315;-62
2022/09/21 08:41:39;;;;;;;;;;;14.40;99.90;;;;;;4162538;28;19959;-62
2022/09/21 08:43:42;;;;;;;;;;;14.40;99.90;;;;;;4163749;28;21228;-63
2022/09/21 08:45:43;;;;;;;;;;;14.50;99.90;;;;;;4162429;28;19967;-63
2022/09/21 08:47:48;;;;;;;;;;;14.80;99.90;;;;;;4163489;28;19917;-64
2022/09/21 08:49:52;;;;;;;;;;;15.20;99.90;;;;;;4162054;28;19975;-64
2022/09/21 08:51:55;;;;;;;;;;;15.60;99.90;;;;;;4163404;28;20392;-64
2022/09/21 08:53:58;;;;;;;;;;;15.90;99.90;;;;;;4162568;28;19905;-64
2022/09/21 08:56:01;;;;;;;;;;;15.90;99.90;;;;;;4163720;28;19909;-64
2022/09/21 08:58:02;;;;;;;;;;;15.40;99.90;;;;;;4162360;28;19909;-62
2022/09/21 09:00:06;;;;;;;;;;;15.50;99.90;;;;;;4163267;28;19913;-63
2022/09/21 09:02:32;;;;;;;;;;;15.80;99.90;;;;;;4162188;28;19925;-64
2022/09/21 09:04:53;;;;;;;;;;;15.70;99.90;;;;;;4163564;28;20905;-64
2022/09/21 09:07:08;;;;;;;;;;;16.00;99.90;;;;;;4161839;28;19963;-63
2022/09/21 09:09:09;;;;;;;;;;;15.70;99.90;;;;;;4163414;28;19905;-63
2022/09/21 09:11:28;;;;;;;;;;;15.50;99.90;;;;;;4162215;28;19951;-63
2022/09/21 09:13:32;;;;;;;;;;;15.40;99.90;;;;;;4163242;28;19905;-64
2022/09/21 09:15:54;;;;;;;;;;;15.40;99.90;;;;;;4161892;28;19909;-64
2022/09/21 09:18:06;;;;;;;;;;;14.80;99.90;;;;;;4162747;28;19905;-63
2022/09/21 09:20:17;;;;;;;;;;;14.50;99.90;;;;;;4160256;28;19909;-63
2022/09/21 09:22:22;;;;;;;;;;;14.50;99.90;;;;;;4162715;28;19913;-63
2022/09/21 09:24:45;;;;;;;;;;;14.90;99.90;;;;;;4161767;28;20350;-63
2022/09/21 09:26:49;;;;;;;;;;;15.30;99.90;;;;;;4162889;28;19909;-63
2022/09/21 09:28:50;;;;;;;;;;;15.50;99.90;;;;;;4161408;28;19905;-63
2022/09/21 09:30:55;;;;;;;;;;;15.20;99.90;;;;;;4163019;28;20307;-62
2022/09/21 09:33:05;;;;;;;;;;;15.20;99.90;;;;;;4161736;28;20242;-63
2022/09/21 09:35:20;;;;;;;;;;;15.30;99.90;;;;;;4162795;28;19979;-63
2022/09/21 09:37:23;;;;;;;;;;;15.50;99.90;;;;;;4161485;28;19951;-62
2022/09/21 09:39:25;;;;;;;;;;;15.50;99.90;;;;;;4162281;28;20300;-62
2022/09/21 09:41:38;;;;;;;;;;;15.60;99.90;;;;;;4159837;28;19947;-62
2022/09/21 09:43:45;;;;;;;;;;;15.50;99.90;;;;;;4162536;28;20308;-63
2022/09/21 09:45:46;;;;;;;;;;;15.20;99.90;;;;;;4161382;28;20301;-63
2022/09/21 09:48:01;;;;;;;;;;;15.00;99.90;;;;;;4162728;28;19967;-63
2022/09/21 09:50:09;;;;;;;;;;;15.30;99.90;;;;;;4161453;28;19971;-64
2022/09/21 09:52:12;;;;;;;;;;;15.50;99.90;;;;;;4162662;28;19959;-63
2022/09/21 09:54:14;;;;;;;;;;;15.60;99.90;;;;;;4161324;28;19909;-64
2022/09/21 09:56:17;;;;;;;;;;;15.70;99.90;;;;;;4162401;28;20300;-63
2022/09/21 09:58:19;;;;;;;;;;;15.90;99.90;;;;;;4161112;28;19908;-63
2022/09/21 10:00:21;;;;;;;;;;;16.00;99.90;;;;;;4161290;28;19951;-62
2022/09/21 10:02:23;;;;;;;;;;;15.90;99.90;;;;;;4161782;28;19971;-63
2022/09/21 10:04:24;;;;;;;;;;;15.80;99.90;;;;;;4159666;28;19909;-63
2022/09/21 10:06:31;;;;;;;;;;;15.70;99.90;;;;;;4192891;28;19908;-63
2022/09/21 10:08:35;;;;;;;;;;;15.40;99.90;;;;;;4161004;28;19971;-63
2022/09/21 10:10:39;;;;;;;;;;;15.50;99.90;;;;;;4161838;28;20359;-63
2022/09/21 10:12:44;;;;;;;;;;;15.70;99.90;;;;;;4161219;28;19913;-63
2022/09/21 10:14:50;;;;;;;;;;;15.90;99.90;;;;;;4162107;28;19982;-62
2022/09/21 10:16:52;;;;;;;;;;;16.00;99.90;;;;;;4161037;28;19980;-63
2022/09/21 10:19:00;;;;;;;;;;;16.10;99.90;;;;;;4162213;28;19909;-63
2022/09/21 10:21:03;;;;;;;;;;;16.20;99.90;;;;;;4160854;28;20337;-62
2022/09/21 10:23:04;;;;;;;;;;;16.40;99.90;;;;;;4161857;28;19951;-63
2022/09/21 10:25:14;;;;;;;;;;;16.40;99.60;;;;;;4160845;28;19909;-63
2022/09/21 10:27:15;;;;;;;;;;;16.30;99.90;;;;;;4161386;28;20429;-63
2022/09/21 10:29:20;;;;;;;;;;;16.30;99.90;;;;;;4160306;28;19905;-66
2022/09/21 10:31:22;;;;;;;;;;;16.00;99.90;;;;;;4161887;28;19905;-63
2022/09/21 10:33:23;;;;;;;;;;;16.10;99.90;;;;;;4159082;28;19908;-63
2022/09/21 10:35:25;;;;;;;;;;;16.10;99.90;;;;;;4161842;28;20247;-66
2022/09/21 10:37:28;;;;;;;;;;;16.00;99.90;;;;;;4160618;28;20312;-63
2022/09/21 10:39:32;;;;;;;;;;;15.70;99.60;;;;;;4161862;28;19908;-63
2022/09/21 10:41:35;;;;;;;;;;;15.60;99.90;;;;;;4158976;28;19939;-61
2022/09/21 10:43:41;;;;;;;;;;;15.60;99.90;;;;;;4161534;28;19963;-65
2022/09/21 10:45:51;;;;;;;;;;;15.70;99.80;;;;;;4160837;28;19975;-65
2022/09/21 10:47:56;;;;;;;;;;;15.80;99.90;;;;;;4160832;28;19983;-62
2022/09/21 10:49:59;;;;;;;;;;;15.90;99.90;;;;;;4159515;28;19951;-64
2022/09/21 10:52:00;;;;;;;;;;;16.10;99.90;;;;;;4192483;28;20273;-62
2022/09/21 10:54:06;;;;;;;;;;;16.20;99.90;;;;;;4161582;28;19909;-64
2022/09/21 10:56:15;;;;;;;;;;;16.30;99.80;;;;;;4160976;28;19913;-62
2022/09/21 10:58:16;;;;;;;;;;;16.30;99.80;;;;;;4161165;28;19905;-63
2022/09/21 11:00:18;;;;;;;;;;;16.30;99.90;;;;;;4160613;28;20359;-62
2022/09/21 11:02:30;;;;;;;;;;;16.30;99.90;;;;;;4162059;28;19917;-63
2022/09/21 11:04:35;;;;;;;;;;;16.10;99.90;;;;;;4160554;28;19987;-62
2022/09/21 11:06:42;;;;;;;;;;;16.00;99.90;;;;;;4161848;28;19909;-62
2022/09/21 11:08:46;;;;;;;;;;;15.90;99.90;;;;;;4160552;28;19913;-63
2022/09/21 11:10:52;;;;;;;;;;;15.80;99.90;;;;;;4161599;28;19962;-61
2022/09/21 11:13:16;;;;;;;;;;;15.80;99.90;;;;;;4160525;28;19913;-63
2022/09/21 11:15:27;;;;;;;;;;;15.90;99.90;;;;;;4161480;28;19916;-63
2022/09/21 11:17:31;;;;;;;;;;;16.00;99.90;;;;;;4191434;28;19912;-62
2022/09/21 11:19:35;;;;;;;;;;;16.00;99.90;;;;;;4161493;28;20357;-61
2022/09/21 11:21:59;;;;;;;;;;;16.00;99.90;;;;;;4160370;28;20316;-64
2022/09/21 11:24:27;;;;;;;;;;;16.10;99.90;;;;;;4161562;28;19909;-63
2022/09/21 11:26:42;;;;;;;;;;;15.90;99.90;;;;;;4160612;28;20316;-63
2022/09/21 11:28:43;;;;;;;;;;;15.80;99.90;;;;;;4160848;28;20023;-62
2022/09/21 11:30:52;;;;;;;;;;;15.50;98.90;;;;;;4160155;28;19905;-63
2022/09/21 11:33:02;;;;;;;;;;;15.20;99.70;;;;;;4161568;28;19951;-63
2022/09/21 11:35:15;;;;;;;;;;;15.10;99.90;;;;;;4160877;28;19909;-64
2022/09/21 11:37:31;;;;;;;;;;;15.10;99.90;;;;;;4160977;28;20022;-64
2022/09/21 11:39:32;;;;;;;;;;;15.10;99.90;;;;;;4160910;28;19909;-63
2022/09/21 11:41:51;;;;;;;;;;;15.20;99.90;;;;;;4195256;28;19995;-62
2022/09/21 11:43:58;;;;;;;;;;;15.10;99.90;;;;;;4163702;28;20250;-62
2022/09/21 11:46:18;;;;;;;;;;;15.10;99.90;;;;;;4163602;28;19962;-62
2022/09/21 11:48:26;;;;;;;;;;;15.00;99.90;;;;;;4163716;28;19917;-63
2022/09/21 11:50:27;;;;;;;;;;;15.00;99.90;;;;;;4163432;28;19970;-62
2022/09/21 11:52:35;;;;;;;;;;;14.90;99.90;;;;;;4163582;28;20544;-63
2022/09/21 11:54:51;;;;;;;;;;;14.80;99.90;;;;;;4163910;28;20399;-63
2022/09/21 11:57:10;;;;;;;;;;;14.70;99.90;;;;;;4163406;28;19909;-63
2022/09/21 11:59:14;;;;;;;;;;;14.70;99.90;;;;;;4163459;28;20312;-62
2022/09/21 12:01:34;;;;;;;;;;;14.60;99.90;;;;;;4163204;28;19921;-62
2022/09/21 12:03:54;;;;;;;;;;;14.60;99.90;;;;;;4163745;28;19991;-63
2022/09/21 12:06:02;;;;;;;;;;;14.90;99.90;;;;;;4163946;28;19939;-63
2022/09/21 12:08:13;;;;;;;;;;;15.10;99.90;;;;;;4163049;28;20343;-63
2022/09/21 12:10:14;;;;;;;;;;;15.20;99.90;;;;;;4163727;28;19970;-65